sensor_id;sensor_type;location;lat;lon;timestamp;temperature;humidity
49549;DHT22;35450;44.518;7.466;2023-09-08T00:01:02;21.30;92.20
49549;DHT22;35450;44.518;7.466;2023-09-08T00:04:06;21.40;92.10
49549;DHT22;35450;44.518;7.466;2023-09-08T00:07:11;21.40;92.00
49549;DHT22;35450;44.518;7.466;2023-09-08T00:10:15;21.40;92.10
49549;DHT22;35450;44.518;7.466;2023-09-08T00:13:19;21.30;92.20
49549;DHT22;35450;44.518;7.466;2023-09-08T00:16:23;21.20;92.20
49549;DHT22;35450;44.518;7.466;2023-09-08T00:19:27;21.20;92.30
49549;DHT22;35450;44.518;7.466;2023-09-08T00:22:31;21.40;92.30
49549;DHT22;35450;44.518;7.466;2023-09-08T00:25:35;21.30;92.30
49549;DHT22;35450;44.518;7.466;2023-09-08T00:28:39;21.20;92.50
49549;DHT22;35450;44.518;7.466;2023-09-08T00:31:42;21.20;92.60
49549;DHT22;35450;44.518;7.466;2023-09-08T00:34:47;21.20;92.50
49549;DHT22;35450;44.518;7.466;2023-09-08T00:37:50;21.10;92.50
49549;DHT22;35450;44.518;7.466;2023-09-08T00:40:55;21.10;92.60
49549;DHT22;35450;44.518;7.466;2023-09-08T00:43:59;21.10;92.70
49549;DHT22;35450;44.518;7.466;2023-09-08T00:47:02;21.10;92.60
49549;DHT22;35450;44.518;7.466;2023-09-08T00:50:07;21.10;92.50
49549;DHT22;35450;44.518;7.466;2023-09-08T00:53:12;21.00;92.50
49549;DHT22;35450;44.518;7.466;2023-09-08T00:56:16;21.00;92.60
49549;DHT22;35450;44.518;7.466;2023-09-08T00:59:20;21.10;92.40
49549;DHT22;35450;44.518;7.466;2023-09-08T01:02:24;21.10;92.30
49549;DHT22;35450;44.518;7.466;2023-09-08T01:05:28;20.90;92.60
49549;DHT22;35450;44.518;7.466;2023-09-08T01:08:34;21.00;92.60
49549;DHT22;35450;44.518;7.466;2023-09-08T01:11:39;20.90;92.70
49549;DHT22;35450;44.518;7.466;2023-09-08T01:14:43;20.90;92.70
49549;DHT22;35450;44.518;7.466;2023-09-08T01:17:47;20.90;92.80
49549;DHT22;35450;44.518;7.466;2023-09-08T01:24:31;20.90;92.50
49549;DHT22;35450;44.518;7.466;2023-09-08T01:27:43;20.80;92.50
49549;DHT22;35450;44.518;7.466;2023-09-08T01:30:51;20.80;92.30
49549;DHT22;35450;44.518;7.466;2023-09-08T01:33:55;20.80;92.30
49549;DHT22;35450;44.518;7.466;2023-09-08T01:37:00;20.70;92.30
49549;DHT22;35450;44.518;7.466;2023-09-08T01:40:08;20.80;92.20
49549;DHT22;35450;44.518;7.466;2023-09-08T01:43:14;20.70;92.20
49549;DHT22;35450;44.518;7.466;2023-09-08T01:46:18;20.80;92.30
49549;DHT22;35450;44.518;7.466;2023-09-08T01:49:24;20.80;92.20
49549;DHT22;35450;44.518;7.466;2023-09-08T01:52:28;20.80;92.20
49549;DHT22;35450;44.518;7.466;2023-09-08T01:55:33;20.80;92.30
49549;DHT22;35450;44.518;7.466;2023-09-08T01:58:37;20.70;92.50
49549;DHT22;35450;44.518;7.466;2023-09-08T02:01:42;20.70;92.40
49549;DHT22;35450;44.518;7.466;2023-09-08T02:04:46;20.60;92.40
49549;DHT22;35450;44.518;7.466;2023-09-08T02:07:50;20.60;92.40
49549;DHT22;35450;44.518;7.466;2023-09-08T02:10:54;20.60;92.30
49549;DHT22;35450;44.518;7.466;2023-09-08T02:13:59;20.60;92.50
49549;DHT22;35450;44.518;7.466;2023-09-08T02:17:03;20.60;92.30
49549;DHT22;35450;44.518;7.466;2023-09-08T02:20:07;20.70;92.30
49549;DHT22;35450;44.518;7.466;2023-09-08T02:23:11;20.70;92.20
49549;DHT22;35450;44.518;7.466;2023-09-08T02:26:16;20.70;92.20
49549;DHT22;35450;44.518;7.466;2023-09-08T02:29:21;20.70;92.20
49549;DHT22;35450;44.518;7.466;2023-09-08T02:32:26;20.70;92.10
49549;DHT22;35450;44.518;7.466;2023-09-08T02:35:36;20.70;92.20
49549;DHT22;35450;44.518;7.466;2023-09-08T02:38:42;20.70;92.20
49549;DHT22;35450;44.518;7.466;2023-09-08T02:41:46;20.70;92.20
49549;DHT22;35450;44.518;7.466;2023-09-08T02:44:50;20.60;92.20
49549;DHT22;35450;44.518;7.466;2023-09-08T02:47:54;20.60;92.30
49549;DHT22;35450;44.518;7.466;2023-09-08T02:50:58;20.60;92.40
49549;DHT22;35450;44.518;7.466;2023-09-08T02:54:02;20.60;92.50
49549;DHT22;35450;44.518;7.466;2023-09-08T02:57:06;20.50;92.50
49549;DHT22;35450;44.518;7.466;2023-09-08T03:00:10;20.50;92.40
49549;DHT22;35450;44.518;7.466;2023-09-08T03:03:14;20.50;92.40
49549;DHT22;35450;44.518;7.466;2023-09-08T03:06:19;20.40;92.50
49549;DHT22;35450;44.518;7.466;2023-09-08T03:09:24;20.30;92.50
49549;DHT22;35450;44.518;7.466;2023-09-08T03:12:28;20.40;92.60
49549;DHT22;35450;44.518;7.466;2023-09-08T03:15:34;20.40;92.50
49549;DHT22;35450;44.518;7.466;2023-09-08T03:18:39;20.40;92.50
49549;DHT22;35450;44.518;7.466;2023-09-08T03:21:43;20.30;92.60
49549;DHT22;35450;44.518;7.466;2023-09-08T03:24:47;20.30;92.80
49549;DHT22;35450;44.518;7.466;2023-09-08T03:27:52;20.30;92.80
49549;DHT22;35450;44.518;7.466;2023-09-08T03:30:56;20.20;92.70
49549;DHT22;35450;44.518;7.466;2023-09-08T03:34:00;20.10;92.90
49549;DHT22;35450;44.518;7.466;2023-09-08T03:37:05;20.20;92.80
49549;DHT22;35450;44.518;7.466;2023-09-08T03:40:09;20.10;92.90
49549;DHT22;35450;44.518;7.466;2023-09-08T03:43:13;20.00;93.00
49549;DHT22;35450;44.518;7.466;2023-09-08T03:46:17;20.10;92.90
49549;DHT22;35450;44.518;7.466;2023-09-08T03:49:21;20.20;92.80
49549;DHT22;35450;44.518;7.466;2023-09-08T03:52:25;20.20;92.80
49549;DHT22;35450;44.518;7.466;2023-09-08T03:55:30;20.20;92.80
49549;DHT22;35450;44.518;7.466;2023-09-08T03:58:33;20.10;92.80
49549;DHT22;35450;44.518;7.466;2023-09-08T04:01:37;20.10;93.00
49549;DHT22;35450;44.518;7.466;2023-09-08T04:04:41;20.10;93.00
49549;DHT22;35450;44.518;7.466;2023-09-08T04:07:46;20.10;93.00
49549;DHT22;35450;44.518;7.466;2023-09-08T04:10:50;20.10;93.00
49549;DHT22;35450;44.518;7.466;2023-09-08T04:13:54;20.00;93.00
49549;DHT22;35450;44.518;7.466;2023-09-08T04:16:58;20.00;93.10
49549;DHT22;35450;44.518;7.466;2023-09-08T04:20:06;20.00;93.10
49549;DHT22;35450;44.518;7.466;2023-09-08T04:23:10;19.90;93.20
49549;DHT22;35450;44.518;7.466;2023-09-08T04:26:14;19.90;93.20
49549;DHT22;35450;44.518;7.466;2023-09-08T04:29:18;19.90;93.20
49549;DHT22;35450;44.518;7.466;2023-09-08T04:32:22;20.00;93.20
49549;DHT22;35450;44.518;7.466;2023-09-08T04:35:26;19.90;93.30
49549;DHT22;35450;44.518;7.466;2023-09-08T04:38:30;19.90;93.30
49549;DHT22;35450;44.518;7.466;2023-09-08T04:41:34;19.90;93.30
49549;DHT22;35450;44.518;7.466;2023-09-08T04:44:38;19.90;93.40
49549;DHT22;35450;44.518;7.466;2023-09-08T04:47:43;19.90;93.40
49549;DHT22;35450;44.518;7.466;2023-09-08T04:50:48;19.90;93.40
49549;DHT22;35450;44.518;7.466;2023-09-08T04:53:52;19.90;93.40
49549;DHT22;35450;44.518;7.466;2023-09-08T04:56:56;19.90;93.40
49549;DHT22;35450;44.518;7.466;2023-09-08T04:59:59;19.80;93.50
49549;DHT22;35450;44.518;7.466;2023-09-08T05:03:04;19.80;93.50
49549;DHT22;35450;44.518;7.466;2023-09-08T05:06:07;19.80;93.50
49549;DHT22;35450;44.518;7.466;2023-09-08T05:09:12;19.80;93.60
49549;DHT22;35450;44.518;7.466;2023-09-08T05:12:16;19.70;93.60
49549;DHT22;35450;44.518;7.466;2023-09-08T05:15:20;19.70;93.60
49549;DHT22;35450;44.518;7.466;2023-09-08T05:18:29;19.70;93.60
49549;DHT22;35450;44.518;7.466;2023-09-08T05:21:34;19.70;93.60
49549;DHT22;35450;44.518;7.466;2023-09-08T05:24:39;19.70;93.60
49549;DHT22;35450;44.518;7.466;2023-09-08T05:27:42;19.70;93.70
49549;DHT22;35450;44.518;7.466;2023-09-08T05:30:46;19.70;93.70
49549;DHT22;35450;44.518;7.466;2023-09-08T05:33:50;19.70;93.70
49549;DHT22;35450;44.518;7.466;2023-09-08T05:36:54;19.70;93.80
49549;DHT22;35450;44.518;7.466;2023-09-08T05:39:58;19.70;93.80
49549;DHT22;35450;44.518;7.466;2023-09-08T05:43:02;19.80;93.80
49549;DHT22;35450;44.518;7.466;2023-09-08T05:46:06;19.90;93.90
49549;DHT22;35450;44.518;7.466;2023-09-08T05:49:10;19.90;93.90
49549;DHT22;35450;44.518;7.466;2023-09-08T05:52:14;19.80;94.00
49549;DHT22;35450;44.518;7.466;2023-09-08T05:55:19;19.80;94.10
49549;DHT22;35450;44.518;7.466;2023-09-08T05:58:25;19.80;94.30
49549;DHT22;35450;44.518;7.466;2023-09-08T06:01:31;19.90;94.50
49549;DHT22;35450;44.518;7.466;2023-09-08T06:04:38;20.00;94.70
49549;DHT22;35450;44.518;7.466;2023-09-08T06:07:43;20.00;94.70
49549;DHT22;35450;44.518;7.466;2023-09-08T06:10:47;20.10;94.80
49549;DHT22;35450;44.518;7.466;2023-09-08T06:13:51;20.20;94.80
49549;DHT22;35450;44.518;7.466;2023-09-08T06:16:56;20.20;94.70
49549;DHT22;35450;44.518;7.466;2023-09-08T06:20:00;20.20;94.60
49549;DHT22;35450;44.518;7.466;2023-09-08T06:23:04;20.30;94.80
49549;DHT22;35450;44.518;7.466;2023-09-08T06:26:08;20.30;95.00
49549;DHT22;35450;44.518;7.466;2023-09-08T06:29:14;20.30;95.10
49549;DHT22;35450;44.518;7.466;2023-09-08T06:32:18;20.40;95.20
49549;DHT22;35450;44.518;7.466;2023-09-08T06:35:26;20.50;95.10
49549;DHT22;35450;44.518;7.466;2023-09-08T06:38:31;20.60;95.10
49549;DHT22;35450;44.518;7.466;2023-09-08T06:41:37;20.60;95.20
49549;DHT22;35450;44.518;7.466;2023-09-08T06:44:42;20.70;95.10
49549;DHT22;35450;44.518;7.466;2023-09-08T06:47:47;20.70;94.60
49549;DHT22;35450;44.518;7.466;2023-09-08T06:50:58;20.80;94.40
49549;DHT22;35450;44.518;7.466;2023-09-08T06:54:03;20.90;94.20
49549;DHT22;35450;44.518;7.466;2023-09-08T06:57:14;20.90;93.60
49549;DHT22;35450;44.518;7.466;2023-09-08T07:00:18;21.00;92.90
49549;DHT22;35450;44.518;7.466;2023-09-08T07:03:24;21.10;92.90
49549;DHT22;35450;44.518;7.466;2023-09-08T07:06:30;21.10;92.90
49549;DHT22;35450;44.518;7.466;2023-09-08T07:09:35;21.20;92.80
49549;DHT22;35450;44.518;7.466;2023-09-08T07:12:42;21.20;92.70
49549;DHT22;35450;44.518;7.466;2023-09-08T07:15:47;21.20;92.70
49549;DHT22;35450;44.518;7.466;2023-09-08T07:18:52;21.30;92.70
49549;DHT22;35450;44.518;7.466;2023-09-08T07:21:56;21.30;92.50
49549;DHT22;35450;44.518;7.466;2023-09-08T07:25:00;21.30;92.30
49549;DHT22;35450;44.518;7.466;2023-09-08T07:28:05;21.40;92.20
49549;DHT22;35450;44.518;7.466;2023-09-08T07:31:10;21.40;92.40
49549;DHT22;35450;44.518;7.466;2023-09-08T07:34:16;21.40;92.50
49549;DHT22;35450;44.518;7.466;2023-09-08T07:37:24;21.40;92.50
49549;DHT22;35450;44.518;7.466;2023-09-08T07:40:29;21.50;92.50
49549;DHT22;35450;44.518;7.466;2023-09-08T07:43:33;21.50;92.40
49549;DHT22;35450;44.518;7.466;2023-09-08T07:46:37;21.50;92.50
49549;DHT22;35450;44.518;7.466;2023-09-08T07:49:45;21.50;92.10
49549;DHT22;35450;44.518;7.466;2023-09-08T07:52:51;21.50;92.20
49549;DHT22;35450;44.518;7.466;2023-09-08T07:55:56;21.60;92.10
49549;DHT22;35450;44.518;7.466;2023-09-08T07:59:00;21.60;91.80
49549;DHT22;35450;44.518;7.466;2023-09-08T08:02:04;21.60;91.50
49549;DHT22;35450;44.518;7.466;2023-09-08T08:05:08;21.70;91.50
49549;DHT22;35450;44.518;7.466;2023-09-08T08:08:12;21.70;91.40
49549;DHT22;35450;44.518;7.466;2023-09-08T08:11:16;21.70;91.30
49549;DHT22;35450;44.518;7.466;2023-09-08T08:14:24;21.80;91.30
49549;DHT22;35450;44.518;7.466;2023-09-08T08:17:28;21.80;91.20
49549;DHT22;35450;44.518;7.466;2023-09-08T08:20:33;21.80;91.30
49549;DHT22;35450;44.518;7.466;2023-09-08T08:23:40;21.90;91.40
49549;DHT22;35450;44.518;7.466;2023-09-08T08:26:43;21.90;91.40
49549;DHT22;35450;44.518;7.466;2023-09-08T08:29:47;21.90;91.30
49549;DHT22;35450;44.518;7.466;2023-09-08T08:32:52;22.00;91.20
49549;DHT22;35450;44.518;7.466;2023-09-08T08:35:57;22.00;91.30
49549;DHT22;35450;44.518;7.466;2023-09-08T08:39:01;22.00;91.30
49549;DHT22;35450;44.518;7.466;2023-09-08T08:42:09;22.00;91.30
49549;DHT22;35450;44.518;7.466;2023-09-08T08:45:13;22.10;91.30
49549;DHT22;35450;44.518;7.466;2023-09-08T08:48:21;22.10;91.30
49549;DHT22;35450;44.518;7.466;2023-09-08T08:51:26;22.10;91.50
49549;DHT22;35450;44.518;7.466;2023-09-08T08:54:39;22.10;91.30
49549;DHT22;35450;44.518;7.466;2023-09-08T08:57:44;22.20;91.30
49549;DHT22;35450;44.518;7.466;2023-09-08T09:00:48;22.20;91.40
49549;DHT22;35450;44.518;7.466;2023-09-08T09:03:52;22.20;91.50
49549;DHT22;35450;44.518;7.466;2023-09-08T09:06:57;22.30;91.40
49549;DHT22;35450;44.518;7.466;2023-09-08T09:10:03;22.30;91.10
49549;DHT22;35450;44.518;7.466;2023-09-08T09:13:07;22.40;91.20
49549;DHT22;35450;44.518;7.466;2023-09-08T09:16:11;22.40;91.30
49549;DHT22;35450;44.518;7.466;2023-09-08T09:19:20;22.40;90.90
49549;DHT22;35450;44.518;7.466;2023-09-08T09:22:36;22.40;91.10
49549;DHT22;35450;44.518;7.466;2023-09-08T09:25:40;22.40;90.70
49549;DHT22;35450;44.518;7.466;2023-09-08T09:28:47;22.40;90.60
49549;DHT22;35450;44.518;7.466;2023-09-08T09:31:57;22.40;90.60
49549;DHT22;35450;44.518;7.466;2023-09-08T09:35:01;22.40;91.00
49549;DHT22;35450;44.518;7.466;2023-09-08T09:38:05;22.50;91.00
49549;DHT22;35450;44.518;7.466;2023-09-08T09:41:09;22.50;90.20
49549;DHT22;35450;44.518;7.466;2023-09-08T09:44:14;22.60;90.10
49549;DHT22;35450;44.518;7.466;2023-09-08T09:47:19;22.70;90.30
49549;DHT22;35450;44.518;7.466;2023-09-08T09:50:31;22.70;90.60
49549;DHT22;35450;44.518;7.466;2023-09-08T09:53:41;22.70;90.30
49549;DHT22;35450;44.518;7.466;2023-09-08T09:56:46;22.70;89.10
49549;DHT22;35450;44.518;7.466;2023-09-08T09:59:56;22.70;90.10
49549;DHT22;35450;44.518;7.466;2023-09-08T10:03:02;22.80;90.00
49549;DHT22;35450;44.518;7.466;2023-09-08T10:06:07;22.80;90.20
49549;DHT22;35450;44.518;7.466;2023-09-08T10:09:13;22.80;90.10
49549;DHT22;35450;44.518;7.466;2023-09-08T10:12:17;22.90;90.60
49549;DHT22;35450;44.518;7.466;2023-09-08T10:15:24;22.90;90.50
49549;DHT22;35450;44.518;7.466;2023-09-08T10:18:29;23.00;90.20
49549;DHT22;35450;44.518;7.466;2023-09-08T10:21:39;23.00;90.00
49549;DHT22;35450;44.518;7.466;2023-09-08T10:24:44;23.00;89.40
49549;DHT22;35450;44.518;7.466;2023-09-08T10:27:50;23.00;89.40
49549;DHT22;35450;44.518;7.466;2023-09-08T10:30:55;23.00;90.40
49549;DHT22;35450;44.518;7.466;2023-09-08T10:33:59;23.00;90.60
49549;DHT22;35450;44.518;7.466;2023-09-08T10:37:18;23.00;90.20
49549;DHT22;35450;44.518;7.466;2023-09-08T10:40:24;23.00;89.30
49549;DHT22;35450;44.518;7.466;2023-09-08T10:43:30;23.10;89.80
49549;DHT22;35450;44.518;7.466;2023-09-08T10:46:34;23.10;89.30
49549;DHT22;35450;44.518;7.466;2023-09-08T10:49:39;23.10;89.70
49549;DHT22;35450;44.518;7.466;2023-09-08T10:52:44;23.10;89.50
49549;DHT22;35450;44.518;7.466;2023-09-08T10:55:49;23.20;89.50
49549;DHT22;35450;44.518;7.466;2023-09-08T10:58:59;23.20;89.40
49549;DHT22;35450;44.518;7.466;2023-09-08T11:02:04;23.30;89.80
49549;DHT22;35450;44.518;7.466;2023-09-08T11:05:08;23.30;89.80
49549;DHT22;35450;44.518;7.466;2023-09-08T11:08:13;23.30;88.70
49549;DHT22;35450;44.518;7.466;2023-09-08T11:11:18;23.40;89.20
49549;DHT22;35450;44.518;7.466;2023-09-08T11:14:22;23.30;87.70
49549;DHT22;35450;44.518;7.466;2023-09-08T11:17:27;23.30;88.30
49549;DHT22;35450;44.518;7.466;2023-09-08T11:20:31;23.40;88.70
49549;DHT22;35450;44.518;7.466;2023-09-08T11:23:36;23.50;88.00
49549;DHT22;35450;44.518;7.466;2023-09-08T11:26:40;23.50;87.00
49549;DHT22;35450;44.518;7.466;2023-09-08T11:29:45;23.50;87.90
49549;DHT22;35450;44.518;7.466;2023-09-08T11:32:49;23.50;89.40
49549;DHT22;35450;44.518;7.466;2023-09-08T11:35:53;23.60;87.90
49549;DHT22;35450;44.518;7.466;2023-09-08T11:38:57;23.60;87.20
49549;DHT22;35450;44.518;7.466;2023-09-08T11:42:01;23.70;86.70
49549;DHT22;35450;44.518;7.466;2023-09-08T11:45:07;23.70;85.90
49549;DHT22;35450;44.518;7.466;2023-09-08T11:48:14;23.70;85.40
49549;DHT22;35450;44.518;7.466;2023-09-08T11:51:23;23.70;86.10
49549;DHT22;35450;44.518;7.466;2023-09-08T11:54:28;23.70;85.60
49549;DHT22;35450;44.518;7.466;2023-09-08T11:57:33;23.70;85.80
49549;DHT22;35450;44.518;7.466;2023-09-08T12:00:37;23.80;86.80
49549;DHT22;35450;44.518;7.466;2023-09-08T12:03:53;23.80;86.00
49549;DHT22;35450;44.518;7.466;2023-09-08T12:06:57;23.80;85.60
49549;DHT22;35450;44.518;7.466;2023-09-08T12:10:08;23.80;85.60
49549;DHT22;35450;44.518;7.466;2023-09-08T12:13:13;23.90;85.50
49549;DHT22;35450;44.518;7.466;2023-09-08T12:16:21;24.00;85.70
49549;DHT22;35450;44.518;7.466;2023-09-08T12:19:31;24.00;84.30
49549;DHT22;35450;44.518;7.466;2023-09-08T12:22:35;24.00;82.90
49549;DHT22;35450;44.518;7.466;2023-09-08T12:25:46;24.00;82.80
49549;DHT22;35450;44.518;7.466;2023-09-08T12:28:51;24.10;84.30
49549;DHT22;35450;44.518;7.466;2023-09-08T12:31:56;24.10;84.20
49549;DHT22;35450;44.518;7.466;2023-09-08T12:35:02;24.10;84.80
49549;DHT22;35450;44.518;7.466;2023-09-08T12:38:06;24.10;84.60
49549;DHT22;35450;44.518;7.466;2023-09-08T12:41:11;24.10;83.50
49549;DHT22;35450;44.518;7.466;2023-09-08T12:44:15;24.10;84.60
49549;DHT22;35450;44.518;7.466;2023-09-08T12:47:19;24.20;84.10
49549;DHT22;35450;44.518;7.466;2023-09-08T12:50:23;24.20;84.00
49549;DHT22;35450;44.518;7.466;2023-09-08T12:53:27;24.30;83.00
49549;DHT22;35450;44.518;7.466;2023-09-08T12:56:31;24.30;84.40
49549;DHT22;35450;44.518;7.466;2023-09-08T12:59:35;24.30;84.40
49549;DHT22;35450;44.518;7.466;2023-09-08T13:02:40;24.40;85.10
49549;DHT22;35450;44.518;7.466;2023-09-08T13:05:45;24.40;84.50
49549;DHT22;35450;44.518;7.466;2023-09-08T13:08:49;24.40;81.40
49549;DHT22;35450;44.518;7.466;2023-09-08T13:11:53;24.50;83.50
49549;DHT22;35450;44.518;7.466;2023-09-08T13:14:57;24.50;83.70
49549;DHT22;35450;44.518;7.466;2023-09-08T13:18:01;24.60;82.30
49549;DHT22;35450;44.518;7.466;2023-09-08T13:21:05;24.60;82.60
49549;DHT22;35450;44.518;7.466;2023-09-08T13:24:09;24.60;83.00
49549;DHT22;35450;44.518;7.466;2023-09-08T13:27:14;24.50;82.50
49549;DHT22;35450;44.518;7.466;2023-09-08T13:30:21;24.60;82.60
49549;DHT22;35450;44.518;7.466;2023-09-08T13:33:30;24.60;83.20
49549;DHT22;35450;44.518;7.466;2023-09-08T13:36:34;24.60;84.00
49549;DHT22;35450;44.518;7.466;2023-09-08T13:39:38;24.60;83.40
49549;DHT22;35450;44.518;7.466;2023-09-08T13:42:42;24.60;82.70
49549;DHT22;35450;44.518;7.466;2023-09-08T13:45:46;24.70;85.00
49549;DHT22;35450;44.518;7.466;2023-09-08T13:48:50;24.70;83.90
49549;DHT22;35450;44.518;7.466;2023-09-08T13:51:55;24.70;83.10
49549;DHT22;35450;44.518;7.466;2023-09-08T13:54:59;24.80;83.90
49549;DHT22;35450;44.518;7.466;2023-09-08T13:58:03;24.80;82.00
49549;DHT22;35450;44.518;7.466;2023-09-08T14:01:07;24.80;81.00
49549;DHT22;35450;44.518;7.466;2023-09-08T14:04:12;24.80;81.20
49549;DHT22;35450;44.518;7.466;2023-09-08T14:07:16;24.80;81.00
49549;DHT22;35450;44.518;7.466;2023-09-08T14:10:20;24.80;80.50
49549;DHT22;35450;44.518;7.466;2023-09-08T14:13:24;24.90;81.10
49549;DHT22;35450;44.518;7.466;2023-09-08T14:16:28;24.90;80.00
49549;DHT22;35450;44.518;7.466;2023-09-08T14:19:32;25.00;81.00
49549;DHT22;35450;44.518;7.466;2023-09-08T14:22:36;25.00;80.90
49549;DHT22;35450;44.518;7.466;2023-09-08T14:25:40;25.10;81.40
49549;DHT22;35450;44.518;7.466;2023-09-08T14:28:44;25.10;81.10
49549;DHT22;35450;44.518;7.466;2023-09-08T14:31:49;25.20;81.20
49549;DHT22;35450;44.518;7.466;2023-09-08T14:34:53;25.30;81.70
49549;DHT22;35450;44.518;7.466;2023-09-08T14:37:57;25.30;80.50
49549;DHT22;35450;44.518;7.466;2023-09-08T14:41:02;25.30;80.20
49549;DHT22;35450;44.518;7.466;2023-09-08T14:44:05;25.30;80.80
49549;DHT22;35450;44.518;7.466;2023-09-08T14:47:09;25.30;82.00
49549;DHT22;35450;44.518;7.466;2023-09-08T14:50:13;25.30;80.60
49549;DHT22;35450;44.518;7.466;2023-09-08T14:53:18;25.30;80.40
49549;DHT22;35450;44.518;7.466;2023-09-08T14:56:21;25.30;80.60
49549;DHT22;35450;44.518;7.466;2023-09-08T14:59:25;25.50;80.80
49549;DHT22;35450;44.518;7.466;2023-09-08T15:02:30;25.60;81.30
49549;DHT22;35450;44.518;7.466;2023-09-08T15:05:34;25.70;78.80
49549;DHT22;35450;44.518;7.466;2023-09-08T15:08:39;25.60;79.40
49549;DHT22;35450;44.518;7.466;2023-09-08T15:11:46;25.70;78.90
49549;DHT22;35450;44.518;7.466;2023-09-08T15:14:50;25.90;78.30
49549;DHT22;35450;44.518;7.466;2023-09-08T15:17:54;25.90;78.30
49549;DHT22;35450;44.518;7.466;2023-09-08T15:20:58;26.10;78.10
49549;DHT22;35450;44.518;7.466;2023-09-08T15:24:02;26.20;78.10
49549;DHT22;35450;44.518;7.466;2023-09-08T15:27:06;26.40;77.70
49549;DHT22;35450;44.518;7.466;2023-09-08T15:30:13;26.50;77.90
49549;DHT22;35450;44.518;7.466;2023-09-08T15:33:17;26.60;78.60
49549;DHT22;35450;44.518;7.466;2023-09-08T15:36:23;26.60;77.90
49549;DHT22;35450;44.518;7.466;2023-09-08T15:39:28;26.60;77.70
49549;DHT22;35450;44.518;7.466;2023-09-08T15:42:32;26.80;77.80
49549;DHT22;35450;44.518;7.466;2023-09-08T15:45:36;26.80;77.60
49549;DHT22;35450;44.518;7.466;2023-09-08T15:48:39;27.10;77.30
49549;DHT22;35450;44.518;7.466;2023-09-08T15:51:43;27.20;76.20
49549;DHT22;35450;44.518;7.466;2023-09-08T15:54:48;27.40;75.80
49549;DHT22;35450;44.518;7.466;2023-09-08T15:57:52;27.40;75.30
49549;DHT22;35450;44.518;7.466;2023-09-08T16:00:56;27.40;75.50
49549;DHT22;35450;44.518;7.466;2023-09-08T16:04:00;27.20;76.40
49549;DHT22;35450;44.518;7.466;2023-09-08T16:07:04;27.00;77.90
49549;DHT22;35450;44.518;7.466;2023-09-08T16:10:09;26.70;79.30
49549;DHT22;35450;44.518;7.466;2023-09-08T16:13:13;26.60;79.20
49549;DHT22;35450;44.518;7.466;2023-09-08T16:16:17;26.60;79.10
49549;DHT22;35450;44.518;7.466;2023-09-08T16:19:21;26.50;81.70
49549;DHT22;35450;44.518;7.466;2023-09-08T16:22:25;26.40;81.00
49549;DHT22;35450;44.518;7.466;2023-09-08T16:25:30;26.20;81.80
49549;DHT22;35450;44.518;7.466;2023-09-08T16:28:34;26.20;80.30
49549;DHT22;35450;44.518;7.466;2023-09-08T16:31:38;26.20;81.60
49549;DHT22;35450;44.518;7.466;2023-09-08T16:34:42;26.10;81.30
49549;DHT22;35450;44.518;7.466;2023-09-08T16:37:46;26.20;81.60
49549;DHT22;35450;44.518;7.466;2023-09-08T16:40:50;26.20;81.90
49549;DHT22;35450;44.518;7.466;2023-09-08T16:43:54;26.30;82.40
49549;DHT22;35450;44.518;7.466;2023-09-08T16:46:58;26.30;82.80
49549;DHT22;35450;44.518;7.466;2023-09-08T16:50:02;26.10;82.50
49549;DHT22;35450;44.518;7.466;2023-09-08T16:53:08;26.00;82.30
49549;DHT22;35450;44.518;7.466;2023-09-08T16:56:12;25.80;85.20
49549;DHT22;35450;44.518;7.466;2023-09-08T16:59:16;25.80;85.00
49549;DHT22;35450;44.518;7.466;2023-09-08T17:02:20;25.90;85.40
49549;DHT22;35450;44.518;7.466;2023-09-08T17:05:24;25.90;85.30
49549;DHT22;35450;44.518;7.466;2023-09-08T17:08:28;25.90;85.10
49549;DHT22;35450;44.518;7.466;2023-09-08T17:11:32;25.70;85.90
49549;DHT22;35450;44.518;7.466;2023-09-08T17:14:40;25.60;85.90
49549;DHT22;35450;44.518;7.466;2023-09-08T17:17:44;25.40;85.60
49549;DHT22;35450;44.518;7.466;2023-09-08T17:20:48;25.30;85.50
49549;DHT22;35450;44.518;7.466;2023-09-08T17:23:53;25.20;85.50
49549;DHT22;35450;44.518;7.466;2023-09-08T17:26:57;25.10;85.80
49549;DHT22;35450;44.518;7.466;2023-09-08T17:30:01;24.90;86.20
49549;DHT22;35450;44.518;7.466;2023-09-08T17:33:09;24.80;86.50
49549;DHT22;35450;44.518;7.466;2023-09-08T17:36:13;24.70;86.60
49549;DHT22;35450;44.518;7.466;2023-09-08T17:39:17;24.50;86.90
49549;DHT22;35450;44.518;7.466;2023-09-08T17:42:21;24.50;87.00
